sensor_id;sensor_type;location;lat;lon;timestamp;temperature;humidity
43015;DHT22;28637;50.554;7.032;2022-12-10T00:00:31;1.90;99.90
43015;DHT22;28637;50.554;7.032;2022-12-10T00:05:35;1.90;99.90
43015;DHT22;28637;50.554;7.032;2022-12-10T00:10:39;1.80;99.90
43015;DHT22;28637;50.554;7.032;2022-12-10T00:15:40;1.80;99.90
43015;DHT22;28637;50.554;7.032;2022-12-10T00:20:41;1.60;99.90
43015;DHT22;28637;50.554;7.032;2022-12-10T00:25:41;1.40;99.90
43015;DHT22;28637;50.554;7.032;2022-12-10T00:30:42;1.40;99.90
43015;DHT22;28637;50.554;7.032;2022-12-10T00:35:42;1.20;99.90
43015;DHT22;28637;50.554;7.032;2022-12-10T00:40:43;1.10;99.90
43015;DHT22;28637;50.554;7.032;2022-12-10T00:45:44;1.10;99.90
43015;DHT22;28637;50.554;7.032;2022-12-10T00:50:54;1.00;99.90
43015;DHT22;28637;50.554;7.032;2022-12-10T00:55:56;0.90;99.90
43015;DHT22;28637;50.554;7.032;2022-12-10T01:01:08;0.90;99.90
43015;DHT22;28637;50.554;7.032;2022-12-10T01:06:19;1.00;99.90
43015;DHT22;28637;50.554;7.032;2022-12-10T01:11:21;1.00;99.90
43015;DHT22;28637;50.554;7.032;2022-12-10T01:16:24;1.00;99.90
43015;DHT22;28637;50.554;7.032;2022-12-10T01:21:27;1.00;99.90
43015;DHT22;28637;50.554;7.032;2022-12-10T01:26:32;1.00;99.90
43015;DHT22;28637;50.554;7.032;2022-12-10T01:31:36;1.00;99.90
43015;DHT22;28637;50.554;7.032;2022-12-10T01:36:40;1.00;99.90
43015;DHT22;28637;50.554;7.032;2022-12-10T01:42:02;1.00;99.90
43015;DHT22;28637;50.554;7.032;2022-12-10T01:47:03;1.10;99.90
43015;DHT22;28637;50.554;7.032;2022-12-10T01:52:06;1.20;99.90
43015;DHT22;28637;50.554;7.032;2022-12-10T01:57:11;1.30;99.90
43015;DHT22;28637;50.554;7.032;2022-12-10T02:18:42;1.70;99.90
43015;DHT22;28637;50.554;7.032;2022-12-10T02:23:49;1.70;99.90
43015;DHT22;28637;50.554;7.032;2022-12-10T02:29:15;1.70;99.90
43015;DHT22;28637;50.554;7.032;2022-12-10T02:34:17;1.70;99.90
43015;DHT22;28637;50.554;7.032;2022-12-10T02:39:24;1.70;99.90
43015;DHT22;28637;50.554;7.032;2022-12-10T02:44:27;1.70;99.90
43015;DHT22;28637;50.554;7.032;2022-12-10T02:49:30;1.80;99.90
43015;DHT22;28637;50.554;7.032;2022-12-10T02:54:40;1.80;99.90
43015;DHT22;28637;50.554;7.032;2022-12-10T03:00:02;1.70;99.90
43015;DHT22;28637;50.554;7.032;2022-12-10T03:05:12;1.70;99.90
43015;DHT22;28637;50.554;7.032;2022-12-10T03:10:25;1.70;99.90
43015;DHT22;28637;50.554;7.032;2022-12-10T03:15:29;1.60;99.90
43015;DHT22;28637;50.554;7.032;2022-12-10T03:20:33;1.60;99.90
43015;DHT22;28637;50.554;7.032;2022-12-10T03:25:35;1.70;99.90
43015;DHT22;28637;50.554;7.032;2022-12-10T03:30:38;1.70;99.90
43015;DHT22;28637;50.554;7.032;2022-12-10T03:35:40;1.70;99.90
43015;DHT22;28637;50.554;7.032;2022-12-10T03:40:41;1.70;99.90
43015;DHT22;28637;50.554;7.032;2022-12-10T03:45:41;1.70;99.90
43015;DHT22;28637;50.554;7.032;2022-12-10T03:50:42;1.60;99.90
43015;DHT22;28637;50.554;7.032;2022-12-10T03:55:43;1.60;99.90
43015;DHT22;28637;50.554;7.032;2022-12-10T04:00:43;1.70;99.90
43015;DHT22;28637;50.554;7.032;2022-12-10T04:05:44;1.70;99.90
43015;DHT22;28637;50.554;7.032;2022-12-10T04:10:45;1.70;99.90
43015;DHT22;28637;50.554;7.032;2022-12-10T04:15:45;1.70;99.90
43015;DHT22;28637;50.554;7.032;2022-12-10T04:21:05;1.70;99.90
43015;DHT22;28637;50.554;7.032;2022-12-10T04:26:24;1.70;99.90
43015;DHT22;28637;50.554;7.032;2022-12-10T04:31:43;1.70;99.90
43015;DHT22;28637;50.554;7.032;2022-12-10T04:36:44;1.60;99.90
43015;DHT22;28637;50.554;7.032;2022-12-10T04:41:47;1.60;99.90
43015;DHT22;28637;50.554;7.032;2022-12-10T04:46:48;1.60;99.90
43015;DHT22;28637;50.554;7.032;2022-12-10T04:51:49;1.70;99.90
43015;DHT22;28637;50.554;7.032;2022-12-10T04:56:50;1.60;99.90
43015;DHT22;28637;50.554;7.032;2022-12-10T05:01:51;1.60;99.90
43015;DHT22;28637;50.554;7.032;2022-12-10T05:06:51;1.60;99.90
43015;DHT22;28637;50.554;7.032;2022-12-10T05:11:52;1.60;99.90
43015;DHT22;28637;50.554;7.032;2022-12-10T05:16:53;1.60;99.90
43015;DHT22;28637;50.554;7.032;2022-12-10T05:21:54;1.70;99.90
43015;DHT22;28637;50.554;7.032;2022-12-10T05:27:13;1.70;99.90
43015;DHT22;28637;50.554;7.032;2022-12-10T05:32:13;1.60;99.90
43015;DHT22;28637;50.554;7.032;2022-12-10T05:37:14;1.70;99.90
43015;DHT22;28637;50.554;7.032;2022-12-10T05:42:15;1.60;99.90
43015;DHT22;28637;50.554;7.032;2022-12-10T05:47:15;1.60;99.90
43015;DHT22;28637;50.554;7.032;2022-12-10T05:52:16;1.60;99.90
43015;DHT22;28637;50.554;7.032;2022-12-10T05:57:16;1.60;99.90
43015;DHT22;28637;50.554;7.032;2022-12-10T06:02:17;1.60;99.90
43015;DHT22;28637;50.554;7.032;2022-12-10T06:07:18;1.60;99.90
43015;DHT22;28637;50.554;7.032;2022-12-10T06:12:18;1.60;99.90
43015;DHT22;28637;50.554;7.032;2022-12-10T06:17:19;1.60;99.90
43015;DHT22;28637;50.554;7.032;2022-12-10T06:22:19;1.60;99.90
43015;DHT22;28637;50.554;7.032;2022-12-10T06:27:20;1.60;99.90
43015;DHT22;28637;50.554;7.032;2022-12-10T06:32:21;1.60;99.90
43015;DHT22;28637;50.554;7.032;2022-12-10T06:37:21;1.60;99.90
43015;DHT22;28637;50.554;7.032;2022-12-10T06:42:22;1.60;99.90
43015;DHT22;28637;50.554;7.032;2022-12-10T06:47:23;1.60;99.90
43015;DHT22;28637;50.554;7.032;2022-12-10T06:52:23;1.60;99.90
43015;DHT22;28637;50.554;7.032;2022-12-10T06:57:24;1.60;99.90
43015;DHT22;28637;50.554;7.032;2022-12-10T07:02:25;1.60;99.90
43015;DHT22;28637;50.554;7.032;2022-12-10T07:07:25;1.60;99.90
43015;DHT22;28637;50.554;7.032;2022-12-10T07:12:26;1.60;99.90
43015;DHT22;28637;50.554;7.032;2022-12-10T07:17:27;1.60;99.90
43015;DHT22;28637;50.554;7.032;2022-12-10T07:22:28;1.60;99.90
43015;DHT22;28637;50.554;7.032;2022-12-10T07:27:28;1.60;99.90
43015;DHT22;28637;50.554;7.032;2022-12-10T07:32:31;1.70;99.90
43015;DHT22;28637;50.554;7.032;2022-12-10T07:37:33;1.70;99.90
43015;DHT22;28637;50.554;7.032;2022-12-10T07:42:33;1.60;99.90
43015;DHT22;28637;50.554;7.032;2022-12-10T07:47:38;1.60;99.90
43015;DHT22;28637;50.554;7.032;2022-12-10T07:52:39;1.70;99.90
43015;DHT22;28637;50.554;7.032;2022-12-10T07:57:39;1.70;99.90
43015;DHT22;28637;50.554;7.032;2022-12-10T08:02:40;1.70;99.90
43015;DHT22;28637;50.554;7.032;2022-12-10T08:07:41;1.60;99.90
43015;DHT22;28637;50.554;7.032;2022-12-10T08:12:41;1.60;99.90
43015;DHT22;28637;50.554;7.032;2022-12-10T08:17:42;1.60;99.90
43015;DHT22;28637;50.554;7.032;2022-12-10T08:22:43;1.60;99.90
43015;DHT22;28637;50.554;7.032;2022-12-10T08:27:43;1.60;99.90
43015;DHT22;28637;50.554;7.032;2022-12-10T08:32:44;1.60;99.90
43015;DHT22;28637;50.554;7.032;2022-12-10T08:37:44;1.60;99.90
43015;DHT22;28637;50.554;7.032;2022-12-10T08:42:45;1.60;99.90
43015;DHT22;28637;50.554;7.032;2022-12-10T08:47:46;1.60;99.90
43015;DHT22;28637;50.554;7.032;2022-12-10T08:52:46;1.60;99.90
43015;DHT22;28637;50.554;7.032;2022-12-10T08:57:47;1.70;99.90
43015;DHT22;28637;50.554;7.032;2022-12-10T09:02:48;1.60;99.90
43015;DHT22;28637;50.554;7.032;2022-12-10T09:07:49;1.90;99.90
43015;DHT22;28637;50.554;7.032;2022-12-10T09:12:50;2.00;99.90
43015;DHT22;28637;50.554;7.032;2022-12-10T09:17:51;2.00;99.90
43015;DHT22;28637;50.554;7.032;2022-12-10T09:22:52;2.20;99.90
43015;DHT22;28637;50.554;7.032;2022-12-10T09:27:52;2.10;99.90
43015;DHT22;28637;50.554;7.032;2022-12-10T09:32:53;2.20;99.90
43015;DHT22;28637;50.554;7.032;2022-12-10T09:37:54;2.10;99.90
43015;DHT22;28637;50.554;7.032;2022-12-10T09:43:13;2.00;99.90
43015;DHT22;28637;50.554;7.032;2022-12-10T09:53:22;2.00;99.90
43015;DHT22;28637;50.554;7.032;2022-12-10T09:58:26;2.00;99.90
43015;DHT22;28637;50.554;7.032;2022-12-10T10:03:38;1.90;99.90
43015;DHT22;28637;50.554;7.032;2022-12-10T10:08:44;1.90;99.90
43015;DHT22;28637;50.554;7.032;2022-12-10T10:13:53;2.00;99.90
43015;DHT22;28637;50.554;7.032;2022-12-10T10:18:58;1.80;99.90
43015;DHT22;28637;50.554;7.032;2022-12-10T10:23:59;1.80;99.90
43015;DHT22;28637;50.554;7.032;2022-12-10T10:29:04;1.80;99.90
43015;DHT22;28637;50.554;7.032;2022-12-10T10:34:18;1.90;99.90
43015;DHT22;28637;50.554;7.032;2022-12-10T10:39:29;2.00;99.90
43015;DHT22;28637;50.554;7.032;2022-12-10T10:44:36;2.00;99.90
43015;DHT22;28637;50.554;7.032;2022-12-10T10:49:43;2.10;99.90
43015;DHT22;28637;50.554;7.032;2022-12-10T10:54:45;2.10;99.90
43015;DHT22;28637;50.554;7.032;2022-12-10T10:59:47;2.00;99.90
43015;DHT22;28637;50.554;7.032;2022-12-10T11:04:53;2.00;99.90
43015;DHT22;28637;50.554;7.032;2022-12-10T11:09:54;2.10;99.90
43015;DHT22;28637;50.554;7.032;2022-12-10T11:14:55;2.00;99.90
43015;DHT22;28637;50.554;7.032;2022-12-10T11:24:59;1.90;99.90
43015;DHT22;28637;50.554;7.032;2022-12-10T11:30:26;2.00;99.90
43015;DHT22;28637;50.554;7.032;2022-12-10T11:51:45;2.50;99.90
43015;DHT22;28637;50.554;7.032;2022-12-10T12:02:32;2.50;99.90
43015;DHT22;28637;50.554;7.032;2022-12-10T12:18:45;2.40;99.90
43015;DHT22;28637;50.554;7.032;2022-12-10T12:24:04;2.30;99.90
43015;DHT22;28637;50.554;7.032;2022-12-10T12:39:48;2.50;99.90
43015;DHT22;28637;50.554;7.032;2022-12-10T12:45:24;2.50;99.90
43015;DHT22;28637;50.554;7.032;2022-12-10T13:17:33;6.40;99.90
43015;DHT22;28637;50.554;7.032;2022-12-10T13:27:39;7.00;99.90
43015;DHT22;28637;50.554;7.032;2022-12-10T13:42:58;8.30;96.30
43015;DHT22;28637;50.554;7.032;2022-12-10T13:48:26;8.40;94.40
43015;DHT22;28637;50.554;7.032;2022-12-10T13:53:39;8.20;93.50
43015;DHT22;28637;50.554;7.032;2022-12-10T14:04:59;7.20;94.60
43015;DHT22;28637;50.554;7.032;2022-12-10T14:09:53;6.00;97.40
43015;DHT22;28637;50.554;7.032;2022-12-10T14:15:00;5.80;98.50
43015;DHT22;28637;50.554;7.032;2022-12-10T14:20:04;5.30;99.50
43015;DHT22;28637;50.554;7.032;2022-12-10T14:25:12;4.70;99.90
43015;DHT22;28637;50.554;7.032;2022-12-10T14:30:23;4.30;99.90
43015;DHT22;28637;50.554;7.032;2022-12-10T14:35:26;4.00;99.90
43015;DHT22;28637;50.554;7.032;2022-12-10T14:40:41;3.70;99.90
43015;DHT22;28637;50.554;7.032;2022-12-10T14:50:51;3.20;99.90
43015;DHT22;28637;50.554;7.032;2022-12-10T14:56:00;3.00;99.90
43015;DHT22;28637;50.554;7.032;2022-12-10T15:01:02;2.90;99.90
43015;DHT22;28637;50.554;7.032;2022-12-10T15:06:07;2.80;99.90
43015;DHT22;28637;50.554;7.032;2022-12-10T15:11:19;2.60;99.90
43015;DHT22;28637;50.554;7.032;2022-12-10T15:16:43;2.40;99.90
43015;DHT22;28637;50.554;7.032;2022-12-10T15:21:45;2.30;99.90
43015;DHT22;28637;50.554;7.032;2022-12-10T15:26:49;2.20;99.90
43015;DHT22;28637;50.554;7.032;2022-12-10T15:31:58;2.10;99.90
43015;DHT22;28637;50.554;7.032;2022-12-10T15:37:03;2.10;99.90
43015;DHT22;28637;50.554;7.032;2022-12-10T15:42:06;2.00;99.90
43015;DHT22;28637;50.554;7.032;2022-12-10T15:47:20;1.80;99.90
43015;DHT22;28637;50.554;7.032;2022-12-10T15:52:26;1.80;99.90
43015;DHT22;28637;50.554;7.032;2022-12-10T15:57:31;1.70;99.90
43015;DHT22;28637;50.554;7.032;2022-12-10T16:07:51;1.60;99.90
43015;DHT22;28637;50.554;7.032;2022-12-10T16:13:05;1.50;99.90
43015;DHT22;28637;50.554;7.032;2022-12-10T16:18:10;1.50;99.90
43015;DHT22;28637;50.554;7.032;2022-12-10T16:23:11;1.40;99.90
43015;DHT22;28637;50.554;7.032;2022-12-10T16:28:17;1.30;99.90
43015;DHT22;28637;50.554;7.032;2022-12-10T16:33:19;1.30;99.90
43015;DHT22;28637;50.554;7.032;2022-12-10T16:38:20;1.10;99.90
43015;DHT22;28637;50.554;7.032;2022-12-10T16:43:24;1.00;99.90
43015;DHT22;28637;50.554;7.032;2022-12-10T16:48:25;1.00;99.90
43015;DHT22;28637;50.554;7.032;2022-12-10T16:53:28;0.90;99.90
43015;DHT22;28637;50.554;7.032;2022-12-10T16:58:29;0.80;99.90
43015;DHT22;28637;50.554;7.032;2022-12-10T17:03:29;0.80;99.90
43015;DHT22;28637;50.554;7.032;2022-12-10T17:08:31;0.80;99.90
43015;DHT22;28637;50.554;7.032;2022-12-10T17:13:34;0.70;99.90
43015;DHT22;28637;50.554;7.032;2022-12-10T17:18:35;0.90;99.90
43015;DHT22;28637;50.554;7.032;2022-12-10T17:23:36;1.20;99.90
43015;DHT22;28637;50.554;7.032;2022-12-10T17:28:36;1.30;99.90
43015;DHT22;28637;50.554;7.032;2022-12-10T17:33:37;1.20;99.90
43015;DHT22;28637;50.554;7.032;2022-12-10T17:38:38;1.10;99.90
43015;DHT22;28637;50.554;7.032;2022-12-10T17:43:38;1.20;99.90
43015;DHT22;28637;50.554;7.032;2022-12-10T17:48:39;1.20;99.90
43015;DHT22;28637;50.554;7.032;2022-12-10T17:53:41;1.20;99.90
43015;DHT22;28637;50.554;7.032;2022-12-10T17:58:43;1.00;99.90
43015;DHT22;28637;50.554;7.032;2022-12-10T18:03:44;0.80;99.90
43015;DHT22;28637;50.554;7.032;2022-12-10T18:08:46;0.80;99.90
43015;DHT22;28637;50.554;7.032;2022-12-10T18:13:47;0.70;99.90
43015;DHT22;28637;50.554;7.032;2022-12-10T18:18:48;0.70;99.90
43015;DHT22;28637;50.554;7.032;2022-12-10T18:23:49;0.60;99.90
43015;DHT22;28637;50.554;7.032;2022-12-10T18:28:55;0.60;99.90
43015;DHT22;28637;50.554;7.032;2022-12-10T18:34:02;0.40;99.90
43015;DHT22;28637;50.554;7.032;2022-12-10T18:39:06;0.30;99.90
43015;DHT22;28637;50.554;7.032;2022-12-10T18:44:07;0.20;99.90
43015;DHT22;28637;50.554;7.032;2022-12-10T18:49:13;0.20;99.90
43015;DHT22;28637;50.554;7.032;2022-12-10T18:54:14;0.20;99.90
43015;DHT22;28637;50.554;7.032;2022-12-10T18:59:16;0.20;99.90
43015;DHT22;28637;50.554;7.032;2022-12-10T19:04:17;0.10;99.90
43015;DHT22;28637;50.554;7.032;2022-12-10T19:09:18;0.00;99.90
43015;DHT22;28637;50.554;7.032;2022-12-10T19:14:19;-0.20;99.90
43015;DHT22;28637;50.554;7.032;2022-12-10T19:19:20;-0.50;99.90
43015;DHT22;28637;50.554;7.032;2022-12-10T19:24:21;-0.60;99.90
43015;DHT22;28637;50.554;7.032;2022-12-10T19:29:22;-0.90;99.90
43015;DHT22;28637;50.554;7.032;2022-12-10T19:34:23;-0.70;99.90
43015;DHT22;28637;50.554;7.032;2022-12-10T19:39:24;-0.70;99.90
43015;DHT22;28637;50.554;7.032;2022-12-10T19:44:25;-0.90;99.90
43015;DHT22;28637;50.554;7.032;2022-12-10T19:49:26;-0.90;99.90
43015;DHT22;28637;50.554;7.032;2022-12-10T19:54:27;-1.00;99.90
43015;DHT22;28637;50.554;7.032;2022-12-10T19:59:28;-0.90;99.90
43015;DHT22;28637;50.554;7.032;2022-12-10T20:04:28;-0.90;99.90
43015;DHT22;28637;50.554;7.032;2022-12-10T20:09:29;-1.00;99.90
43015;DHT22;28637;50.554;7.032;2022-12-10T20:14:30;-1.00;99.90
43015;DHT22;28637;50.554;7.032;2022-12-10T20:19:31;-1.00;99.90
43015;DHT22;28637;50.554;7.032;2022-12-10T20:24:32;-1.00;99.90
43015;DHT22;28637;50.554;7.032;2022-12-10T20:29:33;-1.00;99.90
43015;DHT22;28637;50.554;7.032;2022-12-10T20:34:34;-0.90;99.90
43015;DHT22;28637;50.554;7.032;2022-12-10T20:39:35;-0.80;99.90
43015;DHT22;28637;50.554;7.032;2022-12-10T20:44:35;-0.90;99.90
43015;DHT22;28637;50.554;7.032;2022-12-10T20:49:36;-0.90;99.90
43015;DHT22;28637;50.554;7.032;2022-12-10T20:54:37;-0.80;99.90
43015;DHT22;28637;50.554;7.032;2022-12-10T20:59:37;-0.80;99.90
43015;DHT22;28637;50.554;7.032;2022-12-10T21:04:38;-0.90;99.90
43015;DHT22;28637;50.554;7.032;2022-12-10T21:09:39;-1.00;99.90
43015;DHT22;28637;50.554;7.032;2022-12-10T21:14:41;-1.10;99.90
43015;DHT22;28637;50.554;7.032;2022-12-10T21:19:42;-1.30;99.90
43015;DHT22;28637;50.554;7.032;2022-12-10T21:24:43;-1.40;99.90
43015;DHT22;28637;50.554;7.032;2022-12-10T21:29:43;-1.40;99.90
43015;DHT22;28637;50.554;7.032;2022-12-10T21:34:44;-1.40;99.90
43015;DHT22;28637;50.554;7.032;2022-12-10T21:39:44;-1.40;99.90
43015;DHT22;28637;50.554;7.032;2022-12-10T21:44:45;-1.60;99.90
43015;DHT22;28637;50.554;7.032;2022-12-10T21:49:46;-1.70;99.90
43015;DHT22;28637;50.554;7.032;2022-12-10T21:54:46;-1.80;99.90
43015;DHT22;28637;50.554;7.032;2022-12-10T21:59:47;-1.90;99.90
43015;DHT22;28637;50.554;7.032;2022-12-10T22:04:48;-1.80;99.90
43015;DHT22;28637;50.554;7.032;2022-12-10T22:09:49;-1.80;99.90
43015;DHT22;28637;50.554;7.032;2022-12-10T22:14:50;-1.60;99.90
43015;DHT22;28637;50.554;7.032;2022-12-10T22:19:52;-1.30;99.90
43015;DHT22;28637;50.554;7.032;2022-12-10T22:24:53;-1.10;99.90
43015;DHT22;28637;50.554;7.032;2022-12-10T22:29:53;-0.90;99.90
43015;DHT22;28637;50.554;7.032;2022-12-10T22:34:54;-0.90;99.90
43015;DHT22;28637;50.554;7.032;2022-12-10T22:39:55;-0.90;99.90
43015;DHT22;28637;50.554;7.032;2022-12-10T22:44:56;-0.90;99.90
43015;DHT22;28637;50.554;7.032;2022-12-10T22:49:56;-0.90;99.90
43015;DHT22;28637;50.554;7.032;2022-12-10T22:54:57;-0.70;99.90
43015;DHT22;28637;50.554;7.032;2022-12-10T22:59:58;-0.70;99.90
43015;DHT22;28637;50.554;7.032;2022-12-10T23:04:58;-0.70;99.90
43015;DHT22;28637;50.554;7.032;2022-12-10T23:09:59;-0.60;99.90
43015;DHT22;28637;50.554;7.032;2022-12-10T23:14:59;-0.60;99.90
43015;DHT22;28637;50.554;7.032;2022-12-10T23:20:00;-0.50;99.90
43015;DHT22;28637;50.554;7.032;2022-12-10T23:25:01;-0.50;99.90
43015;DHT22;28637;50.554;7.032;2022-12-10T23:30:02;-0.40;99.90
43015;DHT22;28637;50.554;7.032;2022-12-10T23:35:03;-0.20;99.90
43015;DHT22;28637;50.554;7.032;2022-12-10T23:40:05;-0.30;99.90
43015;DHT22;28637;50.554;7.032;2022-12-10T23:45:06;-0.30;99.90
43015;DHT22;28637;50.554;7.032;2022-12-10T23:50:08;-0.20;99.90
43015;DHT22;28637;50.554;7.032;2022-12-10T23:55:09;-0.10;99.90
